Time;durP1;ratioP1;P1;durP2;ratioP2;P2;SDS_P1;SDS_P2;PMS_P1;PMS_P2;Temp;Humidity;BMP_temperature;BMP_pressure;BME280_temperature;BME280_humidity;BME280_pressure;Samples;Min_cycle;Max_cycle;Signal;HPM_P1;HPM_P2
2023/03/20 00:00:07;;;;;;;30.55;18.50;;;;;;;;;;5004814;28;20130;-82
2023/03/20 00:02:34;;;;;;;24.25;18.20;;;;;;;;;;5003154;28;20042;-82
2023/03/20 00:05:00;;;;;;;29.67;19.58;;;;;;;;;;4993885;28;20322;-81
2023/03/20 00:07:26;;;;;;;29.15;19.55;;;;;;;;;;4997246;28;20030;-83
2023/03/20 00:09:53;;;;;;;28.60;20.38;;;;;;;;;;4995169;28;20023;-82
2023/03/20 00:12:23;;;;;;;29.30;20.25;;;;;;;;;;4994707;28;20030;-82
2023/03/20 00:14:50;;;;;;;31.02;19.55;;;;;;;;;;5000429;28;20049;-82
2023/03/20 00:17:19;;;;;;;27.95;18.17;;;;;;;;;;5006417;28;20026;-82
2023/03/20 00:19:45;;;;;;;29.60;16.98;;;;;;;;;;5012765;28;20018;-82
2023/03/20 00:22:11;;;;;;;26.00;18.77;;;;;;;;;;5003283;28;20030;-82
2023/03/20 00:24:37;;;;;;;28.42;18.73;;;;;;;;;;5001889;28;20460;-82
2023/03/20 00:27:04;;;;;;;31.00;18.58;;;;;;;;;;5003648;28;20080;-82
2023/03/20 00:29:33;;;;;;;27.02;18.33;;;;;;;;;;5011411;28;20025;-82
2023/03/20 00:31:59;;;;;;;21.17;16.30;;;;;;;;;;5011048;28;20021;-82
2023/03/20 00:34:28;;;;;;;29.95;18.73;;;;;;;;;;5006948;28;20399;-81
2023/03/20 00:36:58;;;;;;;27.85;18.40;;;;;;;;;;5001467;28;20021;-82
2023/03/20 00:39:25;;;;;;;28.90;19.65;;;;;;;;;;5014374;28;20033;-82
2023/03/20 00:41:51;;;;;;;30.35;18.92;;;;;;;;;;5006888;28;20023;-81
2023/03/20 00:44:23;;;;;;;27.02;18.98;;;;;;;;;;5002792;28;20033;-81
2023/03/20 00:46:49;;;;;;;;;;;;;;;;;;4993672;28;20358;-81
2023/03/20 00:49:15;;;;;;;25.17;17.10;;;;;;;;;;4994042;28;19910;-82
2023/03/20 00:51:41;;;;;;;27.42;17.02;;;;;;;;;;4994447;28;20372;-81
2023/03/20 00:54:14;;;;;;;29.77;18.50;;;;;;;;;;5000098;28;20478;-82
2023/03/20 00:56:45;;;;;;;26.20;17.70;;;;;;;;;;5003467;28;20049;-82
2023/03/20 00:59:18;;;;;;;26.45;17.65;;;;;;;;;;5004166;28;20424;-80
2023/03/20 01:01:44;;;;;;;25.23;16.48;;;;;;;;;;5002700;28;20065;-82
2023/03/20 01:04:14;;;;;;;28.55;18.73;;;;;;;;;;5008008;28;20030;-82
2023/03/20 01:06:41;;;;;;;29.70;18.67;;;;;;;;;;5000299;28;20489;-82
2023/03/20 01:09:08;;;;;;;26.98;18.23;;;;;;;;;;5014430;28;20049;-81
2023/03/20 01:11:34;;;;;;;26.95;18.63;;;;;;;;;;5006020;28;20030;-82
2023/03/20 01:14:01;;;;;;;25.98;18.20;;;;;;;;;;4995158;28;20026;-81
2023/03/20 01:16:27;;;;;;;25.73;18.15;;;;;;;;;;5005991;28;20524;-80
2023/03/20 01:18:53;;;;;;;23.83;17.70;;;;;;;;;;4999614;28;20030;-81
2023/03/20 01:21:20;;;;;;;28.02;18.67;;;;;;;;;;4994566;28;20114;-81
2023/03/20 01:23:46;;;;;;;27.20;19.08;;;;;;;;;;4996778;28;20106;-81
2023/03/20 01:26:50;;;;;;;25.17;17.08;;;;;;;;;;4996459;28;20113;-82
2023/03/20 01:29:17;;;;;;;25.13;16.58;;;;;;;;;;5008735;28;20030;-81
2023/03/20 01:31:43;;;;;;;26.60;17.77;;;;;;;;;;4986679;28;20057;-82
2023/03/20 01:34:10;;;;;;;28.80;18.63;;;;;;;;;;5010117;28;20045;-80
2023/03/20 01:36:37;;;;;;;29.40;18.27;;;;;;;;;;4995221;28;20121;-82
2023/03/20 01:39:03;;;;;;;29.52;19.20;;;;;;;;;;4979427;28;20023;-81
2023/03/20 01:41:30;;;;;;;25.50;17.88;;;;;;;;;;5014857;28;20125;-81
2023/03/20 01:43:56;;;;;;;25.38;18.17;;;;;;;;;;4997233;28;20049;-82
2023/03/20 01:46:31;;;;;;;27.27;17.90;;;;;;;;;;5014279;28;20045;-81
2023/03/20 01:49:08;;;;;;;27.23;17.77;;;;;;;;;;5013043;28;20022;-82
2023/03/20 01:51:36;;;;;;;27.25;18.13;;;;;;;;;;4995084;28;20030;-82
2023/03/20 01:54:02;;;;;;;28.15;19.38;;;;;;;;;;4995693;28;20037;-81
2023/03/20 01:56:30;;;;;;;27.88;18.83;;;;;;;;;;4994604;28;20038;-81
2023/03/20 01:58:59;;;;;;;32.20;20.02;;;;;;;;;;4994465;28;20018;-82
2023/03/20 02:01:26;;;;;;;29.27;18.33;;;;;;;;;;5003346;28;20037;-81
2023/03/20 02:03:53;;;;;;;28.90;18.77;;;;;;;;;;4997338;28;20403;-81
2023/03/20 02:06:21;;;;;;;29.65;19.60;;;;;;;;;;4996059;28;20050;-81
2023/03/20 02:08:49;;;;;;;27.40;18.48;;;;;;;;;;4999961;28;20026;-81
2023/03/20 02:11:16;;;;;;;29.45;19.92;;;;;;;;;;5014336;28;20030;-81
2023/03/20 02:13:43;;;;;;;28.98;18.65;;;;;;;;;;5004277;28;20034;-82
2023/03/20 02:16:10;;;;;;;26.58;18.85;;;;;;;;;;5015540;28;20053;-82
2023/03/20 02:18:38;;;;;;;30.35;18.98;;;;;;;;;;4996793;28;20031;-81
2023/03/20 02:21:29;;;;;;;26.83;18.38;;;;;;;;;;5000717;28;20034;-81
2023/03/20 02:23:58;;;;;;;25.35;17.10;;;;;;;;;;4999382;28;20022;-82
2023/03/20 02:26:27;;;;;;;27.73;19.13;;;;;;;;;;5013487;28;20129;-80
2023/03/20 02:29:06;;;;;;;28.70;17.85;;;;;;;;;;5016999;28;20097;-81
2023/03/20 02:31:53;;;;;;;28.20;19.33;;;;;;;;;;5014269;28;20493;-82
2023/03/20 02:34:19;;;;;;;28.00;18.48;;;;;;;;;;4997136;28;20026;-81
2023/03/20 02:40:09;;;;;;;27.00;17.80;;;;;;;;;;4996762;28;20033;-82
2023/03/20 02:42:58;;;;;;;27.95;18.88;;;;;;;;;;4997360;28;20030;-82
2023/03/20 02:45:39;;;;;;;28.17;18.83;;;;;;;;;;5003447;28;20022;-82
2023/03/20 02:48:13;;;;;;;25.58;18.27;;;;;;;;;;4995415;28;20049;-82
2023/03/20 02:50:47;;;;;;;27.60;18.20;;;;;;;;;;4999653;28;20034;-82
2023/03/20 02:53:19;;;;;;;30.45;19.38;;;;;;;;;;4996086;28;20034;-82
2023/03/20 02:56:07;;;;;;;28.48;18.30;;;;;;;;;;5014924;28;20433;-82
2023/03/20 02:58:40;;;;;;;29.77;18.90;;;;;;;;;;4996723;28;20150;-81
2023/03/20 03:01:06;;;;;;;;;;;;;;;;;;4995740;28;20049;-82
2023/03/20 03:03:34;;;;;;;25.25;17.08;;;;;;;;;;4997251;28;19918;-81
2023/03/20 03:06:10;;;;;;;31.75;19.92;;;;;;;;;;4996950;28;20051;-82
2023/03/20 03:08:38;;;;;;;31.25;19.48;;;;;;;;;;4998829;28;20030;-81
2023/03/20 03:11:06;;;;;;;34.15;20.85;;;;;;;;;;5003754;28;20433;-81
2023/03/20 03:13:34;;;;;;;33.95;21.65;;;;;;;;;;5014828;28;20420;-82
2023/03/20 03:16:03;;;;;;;31.38;19.77;;;;;;;;;;5000950;28;20089;-82
2023/03/20 03:18:31;;;;;;;28.95;19.75;;;;;;;;;;5002839;28;20057;-81
2023/03/20 03:20:59;;;;;;;35.25;21.92;;;;;;;;;;5015560;28;20026;-82
2023/03/20 03:23:34;;;;;;;35.42;22.00;;;;;;;;;;4995883;28;20030;-81
2023/03/20 03:26:02;;;;;;;33.58;22.30;;;;;;;;;;5005434;28;20033;-82
2023/03/20 03:28:37;;;;;;;30.05;19.98;;;;;;;;;;4996595;28;20030;-82
2023/03/20 03:31:12;;;;;;;33.38;21.08;;;;;;;;;;4995925;28;20154;-82
2023/03/20 03:33:43;;;;;;;31.23;20.05;;;;;;;;;;4996111;28;20027;-80
2023/03/20 03:36:30;;;;;;;30.27;19.45;;;;;;;;;;5015493;28;20018;-80
2023/03/20 03:38:59;;;;;;;28.35;19.80;;;;;;;;;;4996725;28;20030;-82
2023/03/20 03:41:34;;;;;;;32.80;20.55;;;;;;;;;;4998413;28;20033;-82
2023/03/20 03:44:32;;;;;;;29.70;20.75;;;;;;;;;;5008660;28;20026;-82
2023/03/20 03:47:14;;;;;;;32.72;20.83;;;;;;;;;;4989709;28;20043;-82
2023/03/20 03:49:42;;;;;;;34.75;21.30;;;;;;;;;;4991117;28;20046;-81
2023/03/20 03:52:11;;;;;;;33.83;21.60;;;;;;;;;;4977568;28;20425;-81
2023/03/20 03:54:40;;;;;;;30.60;19.38;;;;;;;;;;4975000;28;20029;-82
2023/03/20 03:57:09;;;;;;;34.05;20.50;;;;;;;;;;4972373;28;20482;-82
2023/03/20 03:59:42;;;;;;;32.63;21.13;;;;;;;;;;4986425;28;20498;-81
2023/03/20 04:02:08;;;;;;;33.97;21.83;;;;;;;;;;4975202;28;20038;-82
2023/03/20 04:04:36;;;;;;;35.95;21.17;;;;;;;;;;4974316;28;20027;-81
2023/03/20 04:07:02;;;;;;;28.80;19.95;;;;;;;;;;4992214;28;20026;-81
2023/03/20 04:09:29;;;;;;;31.40;20.83;;;;;;;;;;4971376;28;20035;-81
2023/03/20 04:11:55;;;;;;;29.38;21.05;;;;;;;;;;4991625;28;20065;-81
2023/03/20 04:14:21;;;;;;;34.65;21.65;;;;;;;;;;4975278;28;20227;-81
2023/03/20 04:16:47;;;;;;;40.80;24.20;;;;;;;;;;4991040;28;20039;-82
2023/03/20 04:19:13;;;;;;;33.35;21.95;;;;;;;;;;4991196;28;20054;-80
2023/03/20 04:21:39;;;;;;;32.38;21.30;;;;;;;;;;4992169;28;20422;-82
2023/03/20 04:24:06;;;;;;;32.65;20.77;;;;;;;;;;5009368;28;20022;-82
2023/03/20 04:26:32;;;;;;;33.00;21.52;;;;;;;;;;5015240;28;20045;-81
2023/03/20 04:28:58;;;;;;;31.55;21.10;;;;;;;;;;5001589;28;20398;-81
2023/03/20 04:31:24;;;;;;;30.63;19.92;;;;;;;;;;5003263;28;20032;-80
2023/03/20 04:33:51;;;;;;;30.70;20.52;;;;;;;;;;4996281;28;20030;-82
2023/03/20 04:36:17;;;;;;;31.02;20.77;;;;;;;;;;4994865;28;20072;-82
2023/03/20 04:38:43;;;;;;;37.22;22.23;;;;;;;;;;4993324;28;20018;-82
2023/03/20 04:41:09;;;;;;;34.22;22.35;;;;;;;;;;4994389;28;20035;-81
2023/03/20 04:43:35;;;;;;;31.08;22.23;;;;;;;;;;4994624;28;20026;-82
2023/03/20 04:46:03;;;;;;;33.80;22.52;;;;;;;;;;4999623;28;20405;-82
2023/03/20 04:48:29;;;;;;;33.40;22.90;;;;;;;;;;5002213;28;20022;-81
2023/03/20 04:50:57;;;;;;;32.10;21.10;;;;;;;;;;5005853;28;20040;-80
2023/03/20 04:53:24;;;;;;;32.90;21.20;;;;;;;;;;5004982;28;20022;-80
2023/03/20 04:55:50;;;;;;;28.63;19.38;;;;;;;;;;5005982;28;20056;-81
2023/03/20 04:58:16;;;;;;;31.38;22.17;;;;;;;;;;4993305;28;20391;-80
2023/03/20 05:00:43;;;;;;;29.83;21.17;;;;;;;;;;5001841;28;20041;-81
2023/03/20 05:03:09;;;;;;;29.80;20.98;;;;;;;;;;5007421;28;20058;-81
2023/03/20 05:05:36;;;;;;;28.80;20.35;;;;;;;;;;5009384;28;20038;-81
2023/03/20 05:08:03;;;;;;;32.10;21.35;;;;;;;;;;5018012;28;20033;-81
2023/03/20 05:10:29;;;;;;;31.58;21.02;;;;;;;;;;5017813;28;20075;-81
2023/03/20 05:12:55;;;;;;;30.40;21.58;;;;;;;;;;5003067;28;20038;-80
2023/03/20 05:15:21;;;;;;;30.08;20.70;;;;;;;;;;5009863;28;20018;-81
2023/03/20 05:17:47;;;;;;;31.17;22.60;;;;;;;;;;5001504;28;20093;-82
2023/03/20 05:20:13;;;;;;;29.27;20.98;;;;;;;;;;5009027;28;20053;-81
2023/03/20 05:22:39;;;;;;;29.80;20.50;;;;;;;;;;5006245;28;20042;-82
2023/03/20 05:25:05;;;;;;;28.55;20.67;;;;;;;;;;5001727;28;20034;-81
2023/03/20 05:27:31;;;;;;;30.65;21.05;;;;;;;;;;5009258;28;20022;-81
2023/03/20 05:29:58;;;;;;;30.27;22.23;;;;;;;;;;5009931;28;20121;-82
2023/03/20 05:32:24;;;;;;;29.35;22.08;;;;;;;;;;5000375;28;20577;-81
2023/03/20 05:34:50;;;;;;;29.20;21.17;;;;;;;;;;5023359;28;20064;-81
2023/03/20 05:37:16;;;;;;;31.50;21.23;;;;;;;;;;5014820;28;20026;-82
2023/03/20 05:39:42;;;;;;;29.58;21.85;;;;;;;;;;5007814;28;20022;-82
2023/03/20 05:42:08;;;;;;;31.50;22.58;;;;;;;;;;5003821;28;20026;-83
2023/03/20 05:44:34;;;;;;;32.72;22.25;;;;;;;;;;5006803;28;20471;-82
2023/03/20 05:47:00;;;;;;;31.10;22.30;;;;;;;;;;5013947;28;20030;-82
2023/03/20 05:49:26;;;;;;;27.98;20.27;;;;;;;;;;4999959;28;20018;-80
2023/03/20 05:51:52;;;;;;;32.20;22.05;;;;;;;;;;5000654;28;20502;-81
2023/03/20 05:54:19;;;;;;;34.80;23.33;;;;;;;;;;5001209;28;20232;-81
2023/03/20 05:56:45;;;;;;;33.00;23.80;;;;;;;;;;5002433;28;20054;-81
2023/03/20 05:59:11;;;;;;;30.92;23.08;;;;;;;;;;5034129;28;20009;-81
2023/03/20 06:01:37;;;;;;;33.35;23.02;;;;;;;;;;5000869;28;20092;-81
2023/03/20 06:04:03;;;;;;;29.45;22.80;;;;;;;;;;5016886;28;20033;-82
2023/03/20 06:06:30;;;;;;;29.00;21.58;;;;;;;;;;5005574;28;20030;-82
2023/03/20 06:08:56;;;;;;;29.75;21.40;;;;;;;;;;5008709;28;20026;-81
2023/03/20 06:11:23;;;;;;;30.40;21.92;;;;;;;;;;5011926;28;20579;-82
2023/03/20 06:13:50;;;;;;;29.75;20.92;;;;;;;;;;5010521;28;20038;-82
2023/03/20 06:16:16;;;;;;;32.85;23.05;;;;;;;;;;5014822;28;20166;-81
2023/03/20 06:18:42;;;;;;;30.02;22.42;;;;;;;;;;5007085;28;20107;-82
2023/03/20 06:21:08;;;;;;;30.42;22.10;;;;;;;;;;5008886;28;20069;-82
2023/03/20 06:23:35;;;;;;;30.30;21.42;;;;;;;;;;5000497;28;20034;-81
2023/03/20 06:26:01;;;;;;;30.58;22.33;;;;;;;;;;5006717;28;20072;-81
2023/03/20 06:28:27;;;;;;;32.60;20.50;;;;;;;;;;5006383;28;20086;-82
2023/03/20 06:30:53;;;;;;;31.95;23.25;;;;;;;;;;5003390;28;20127;-82
2023/03/20 06:33:19;;;;;;;27.88;21.73;;;;;;;;;;5014074;28;20429;-82
2023/03/20 06:35:45;;;;;;;33.35;22.42;;;;;;;;;;4999262;28;20025;-82
2023/03/20 06:38:11;;;;;;;29.60;21.38;;;;;;;;;;5000282;28;20040;-82
2023/03/20 06:40:38;;;;;;;28.95;22.30;;;;;;;;;;4999318;28;20394;-82
2023/03/20 06:43:04;;;;;;;30.98;23.50;;;;;;;;;;4999509;28;20487;-82
2023/03/20 06:45:30;;;;;;;29.85;22.45;;;;;;;;;;5006286;28;20041;-82
2023/03/20 06:47:56;;;;;;;32.63;21.55;;;;;;;;;;5006289;28;20029;-82
2023/03/20 06:50:22;;;;;;;32.45;22.50;;;;;;;;;;5002613;28;20109;-82
2023/03/20 06:52:48;;;;;;;31.35;21.35;;;;;;;;;;5008231;28;20052;-81
2023/03/20 06:55:14;;;;;;;28.15;20.77;;;;;;;;;;5008019;28;20406;-81
2023/03/20 06:57:40;;;;;;;29.95;21.48;;;;;;;;;;4996186;28;20030;-79
2023/03/20 07:00:08;;;;;;;29.98;22.00;;;;;;;;;;5008113;28;20496;-79
2023/03/20 07:02:34;;;;;;;31.35;22.08;;;;;;;;;;5016509;28;20414;-79
2023/03/20 07:05:00;;;;;;;28.95;22.10;;;;;;;;;;5010318;28;20023;-79
2023/03/20 07:07:26;;;;;;;30.92;21.67;;;;;;;;;;5006212;28;20061;-79
2023/03/20 07:09:52;;;;;;;29.33;21.10;;;;;;;;;;5016517;28;20465;-80
2023/03/20 07:12:23;;;;;;;34.88;21.42;;;;;;;;;;5016631;28;20037;-79
2023/03/20 07:14:49;;;;;;;27.40;20.13;;;;;;;;;;5015821;28;20037;-80
2023/03/20 07:17:15;;;;;;;29.35;20.42;;;;;;;;;;5008087;28;20026;-80
2023/03/20 07:19:41;;;;;;;31.55;21.90;;;;;;;;;;4996307;28;20023;-80
2023/03/20 07:22:08;;;;;;;32.95;19.92;;;;;;;;;;5000496;28;20065;-80
2023/03/20 07:24:34;;;;;;;32.83;19.83;;;;;;;;;;5015705;28;20026;-80
2023/03/20 07:27:00;;;;;;;31.50;19.52;;;;;;;;;;5014079;28;20094;-80
2023/03/20 07:29:26;;;;;;;33.58;20.58;;;;;;;;;;5015086;28;20030;-81
2023/03/20 07:31:53;;;;;;;35.38;19.58;;;;;;;;;;5016348;28;20025;-79
2023/03/20 07:34:19;;;;;;;24.67;17.88;;;;;;;;;;5017884;28;20037;-79
2023/03/20 07:36:45;;;;;;;20.27;15.75;;;;;;;;;;5011113;28;20510;-80
2023/03/20 07:39:11;;;;;;;19.67;15.38;;;;;;;;;;4997361;28;20030;-80
2023/03/20 07:41:37;;;;;;;19.90;14.95;;;;;;;;;;4996758;28;20109;-80
2023/03/20 07:44:03;;;;;;;22.23;16.17;;;;;;;;;;5010245;28;20543;-81
2023/03/20 07:46:29;;;;;;;21.35;16.05;;;;;;;;;;5012969;28;20398;-81
2023/03/20 07:48:57;;;;;;;21.27;15.63;;;;;;;;;;5013776;28;20026;-80
2023/03/20 07:51:23;;;;;;;19.10;15.52;;;;;;;;;;5013812;28;20434;-79
2023/03/20 07:53:49;;;;;;;17.92;14.02;;;;;;;;;;5013612;28;20038;-80
2023/03/20 07:56:15;;;;;;;19.60;16.08;;;;;;;;;;5015591;28;20084;-80
2023/03/20 07:58:41;;;;;;;17.90;14.70;;;;;;;;;;5014718;28;20068;-80
2023/03/20 08:01:07;;;;;;;19.38;14.90;;;;;;;;;;5012622;28;20018;-80
2023/03/20 08:03:33;;;;;;;18.85;14.32;;;;;;;;;;5012518;28;20050;-80
2023/03/20 08:06:00;;;;;;;19.45;13.82;;;;;;;;;;4999825;28;20038;-78
2023/03/20 08:08:26;;;;;;;16.65;13.38;;;;;;;;;;4994719;28;20343;-80
2023/03/20 08:10:52;;;;;;;17.67;13.60;;;;;;;;;;4994131;28;20446;-80
2023/03/20 08:13:18;;;;;;;18.17;13.40;;;;;;;;;;4995987;28;20084;-80
2023/03/20 08:15:45;;;;;;;19.48;12.55;;;;;;;;;;4995879;28;20026;-80
2023/03/20 08:18:11;;;;;;;17.30;14.00;;;;;;;;;;4994612;28;20026;-81
2023/03/20 08:20:38;;;;;;;19.13;13.55;;;;;;;;;;5003008;28;20022;-81
2023/03/20 08:23:04;;;;;;;18.95;13.50;;;;;;;;;;5001726;28;20113;-81
2023/03/20 08:25:32;;;;;;;13.15;10.23;;;;;;;;;;4998642;28;20461;-79
2023/03/20 08:27:58;;;;;;;15.10;11.02;;;;;;;;;;5010872;28;20317;-81
2023/03/20 08:30:25;;;;;;;14.02;11.25;;;;;;;;;;5013859;28;20100;-80
2023/03/20 08:32:51;;;;;;;19.02;12.32;;;;;;;;;;5010813;28;20030;-80
2023/03/20 08:35:17;;;;;;;14.07;11.15;;;;;;;;;;5002941;28;20045;-79
2023/03/20 08:37:43;;;;;;;16.77;11.45;;;;;;;;;;5004872;28;20459;-80
2023/03/20 08:40:15;;;;;;;15.32;11.57;;;;;;;;;;4996405;28;20026;-80
2023/03/20 08:42:41;;;;;;;12.88;10.32;;;;;;;;;;5008494;28;20030;-82
2023/03/20 08:45:16;;;;;;;16.25;11.70;;;;;;;;;;5008494;28;20489;-83
2023/03/20 08:48:18;;;;;;;14.10;10.98;;;;;;;;;;5011152;28;20061;-82
2023/03/20 08:50:44;;;;;;;15.55;11.43;;;;;;;;;;4993284;28;20092;-82
2023/03/20 08:53:10;;;;;;;12.85;9.93;;;;;;;;;;4993890;28;20029;-82
2023/03/20 08:55:47;;;;;;;10.30;7.75;;;;;;;;;;4994157;28;20486;-83
2023/03/20 08:58:14;;;;;;;11.90;8.57;;;;;;;;;;4993733;28;20429;-81
2023/03/20 09:00:43;;;;;;;11.55;7.93;;;;;;;;;;5010040;28;20057;-81
2023/03/20 09:03:16;;;;;;;11.50;8.85;;;;;;;;;;5008940;28;20061;-81
2023/03/20 09:05:46;;;;;;;12.75;8.13;;;;;;;;;;5000445;28;20476;-82
2023/03/20 09:08:12;;;;;;;10.40;7.82;;;;;;;;;;5006512;28;20034;-81
2023/03/20 09:10:39;;;;;;;14.90;8.85;;;;;;;;;;5011929;28;20653;-80
2023/03/20 09:13:05;;;;;;;15.02;9.57;;;;;;;;;;5011600;28;20493;-82
2023/03/20 09:15:31;;;;;;;14.85;10.07;;;;;;;;;;5012189;28;20022;-82
2023/03/20 09:17:58;;;;;;;14.00;9.38;;;;;;;;;;5006675;28;20125;-81
2023/03/20 09:20:24;;;;;;;12.73;9.63;;;;;;;;;;4992079;28;20494;-81
2023/03/20 09:22:50;;;;;;;12.65;9.60;;;;;;;;;;5000345;28;20057;-81
2023/03/20 09:25:16;;;;;;;11.60;8.45;;;;;;;;;;5019035;28;20413;-81
2023/03/20 09:27:42;;;;;;;12.02;9.00;;;;;;;;;;4986087;28;20040;-80
2023/03/20 09:30:10;;;;;;;11.93;8.38;;;;;;;;;;5002370;28;20136;-81
2023/03/20 09:32:36;;;;;;;11.07;8.77;;;;;;;;;;4997114;28;20410;-81
2023/03/20 09:35:03;;;;;;;11.98;8.48;;;;;;;;;;4998954;28;20018;-82
2023/03/20 09:37:29;;;;;;;11.95;7.68;;;;;;;;;;4998879;28;20033;-82
2023/03/20 09:39:55;;;;;;;10.82;7.82;;;;;;;;;;5006225;28;20030;-81
2023/03/20 09:42:41;;;;;;;9.85;6.80;;;;;;;;;;5007883;28;20113;-80
2023/03/20 09:45:14;;;;;;;12.48;7.40;;;;;;;;;;5005133;28;20070;-82
2023/03/20 09:47:40;;;;;;;;;;;;;;;;;;5007950;28;20549;-81
2023/03/20 09:50:22;;;;;;;12.68;8.38;;;;;;;;;;5007697;28;19909;-82
2023/03/20 09:53:01;;;;;;;10.03;7.60;;;;;;;;;;5011628;28;20054;-79
2023/03/20 09:55:33;;;;;;;9.48;7.35;;;;;;;;;;5006125;28;20327;-82
2023/03/20 09:58:03;;;;;;;9.45;6.30;;;;;;;;;;5020433;28;20030;-80
2023/03/20 10:00:32;;;;;;;8.13;6.05;;;;;;;;;;5018825;28;20025;-81
2023/03/20 10:03:00;;;;;;;10.20;6.60;;;;;;;;;;5009008;28;20076;-82
2023/03/20 10:05:27;;;;;;;9.82;6.57;;;;;;;;;;5006091;28;20088;-81
2023/03/20 10:07:58;;;;;;;9.75;6.75;;;;;;;;;;5001229;28;20030;-80
2023/03/20 10:10:34;;;;;;;13.32;8.63;;;;;;;;;;5000072;28;20029;-80
2023/03/20 10:13:09;;;;;;;10.88;8.07;;;;;;;;;;4998527;28;20026;-82
2023/03/20 10:15:35;;;;;;;9.80;7.53;;;;;;;;;;5007818;28;20058;-82
2023/03/20 10:18:20;;;;;;;9.20;6.88;;;;;;;;;;5017511;28;20486;-81
2023/03/20 10:20:55;;;;;;;10.80;7.25;;;;;;;;;;5005714;28;20034;-81
2023/03/20 10:23:24;;;;;;;9.40;6.80;;;;;;;;;;4998914;28;20027;-83
2023/03/20 10:26:00;;;;;;;10.70;7.15;;;;;;;;;;5019798;28;20026;-82
2023/03/20 10:28:26;;;;;;;11.23;8.05;;;;;;;;;;5018292;28;20103;-82
2023/03/20 10:30:59;;;;;;;11.48;8.65;;;;;;;;;;5017713;28;20046;-82
2023/03/20 10:33:52;;;;;;;10.23;7.50;;;;;;;;;;5015509;28;20025;-82
2023/03/20 10:36:21;;;;;;;9.93;7.15;;;;;;;;;;5017427;28;20171;-83
2023/03/20 10:38:51;;;;;;;10.23;7.20;;;;;;;;;;5017363;28;20026;-83
2023/03/20 10:41:19;;;;;;;9.75;6.82;;;;;;;;;;5014025;28;20022;-83
2023/03/20 10:43:46;;;;;;;10.07;7.18;;;;;;;;;;5009747;28;20022;-82
2023/03/20 10:46:19;;;;;;;9.25;6.70;;;;;;;;;;4997706;28;20014;-81
2023/03/20 10:48:54;;;;;;;10.02;5.68;;;;;;;;;;4998322;28;20018;-80
2023/03/20 10:51:22;;;;;;;12.02;6.78;;;;;;;;;;4998118;28;20037;-82
2023/03/20 10:54:00;;;;;;;8.30;5.40;;;;;;;;;;5010416;28;20030;-81
2023/03/20 10:56:32;;;;;;;9.13;5.00;;;;;;;;;;5012115;28;20022;-81
2023/03/20 10:59:01;;;;;;;7.40;4.90;;;;;;;;;;5007735;28;20026;-81
2023/03/20 11:01:27;;;;;;;7.32;5.10;;;;;;;;;;5010943;28;20034;-82
2023/03/20 11:03:54;;;;;;;6.97;4.70;;;;;;;;;;5008341;28;20034;-80
2023/03/20 11:06:23;;;;;;;7.10;4.55;;;;;;;;;;5016324;28;20025;-81
2023/03/20 11:08:50;;;;;;;9.45;5.07;;;;;;;;;;5016204;28;20029;-80
2023/03/20 11:11:26;;;;;;;7.22;4.43;;;;;;;;;;5017586;28;20025;-79
2023/03/20 11:13:53;;;;;;;7.05;4.28;;;;;;;;;;5019706;28;20088;-80
2023/03/20 11:16:20;;;;;;;7.72;4.45;;;;;;;;;;5016212;28;20048;-81
2023/03/20 11:18:51;;;;;;;6.20;4.60;;;;;;;;;;5007990;28;20022;-83
2023/03/20 11:21:28;;;;;;;6.50;4.13;;;;;;;;;;5010965;28;20072;-82
2023/03/20 11:23:54;;;;;;;7.50;3.60;;;;;;;;;;5014104;28;20493;-82
2023/03/20 11:26:37;;;;;;;5.68;3.90;;;;;;;;;;5000663;28;21341;-81
2023/03/20 11:29:07;;;;;;;6.43;2.92;;;;;;;;;;5005509;28;20022;-82
2023/03/20 11:31:35;;;;;;;5.22;3.05;;;;;;;;;;5000446;28;20038;-82
2023/03/20 11:34:03;;;;;;;6.75;3.65;;;;;;;;;;5009150;28;20014;-82
2023/03/20 11:36:32;;;;;;;7.65;5.05;;;;;;;;;;5017576;28;20026;-82
2023/03/20 11:39:12;;;;;;;9.68;4.28;;;;;;;;;;5017822;28;20021;-81
2023/03/20 11:41:46;;;;;;;5.88;3.95;;;;;;;;;;5003709;28;20022;-81
2023/03/20 11:44:24;;;;;;;7.53;3.38;;;;;;;;;;5008014;28;20030;-82
2023/03/20 11:46:56;;;;;;;10.48;5.88;;;;;;;;;;5002391;28;20060;-81
2023/03/20 11:49:24;;;;;;;16.05;9.85;;;;;;;;;;5011294;28;20056;-78
2023/03/20 11:51:51;;;;;;;7.13;4.25;;;;;;;;;;5008451;28;20092;-78
2023/03/20 11:54:22;;;;;;;15.65;10.57;;;;;;;;;;5008082;28;20494;-78
2023/03/20 11:57:06;;;;;;;9.43;7.40;;;;;;;;;;4998851;28;20026;-78
2023/03/20 11:59:33;;;;;;;9.00;6.30;;;;;;;;;;4996105;28;20081;-79
2023/03/20 12:02:01;;;;;;;9.27;6.68;;;;;;;;;;5007465;28;20034;-79
2023/03/20 12:04:30;;;;;;;8.18;6.28;;;;;;;;;;4998148;28;20034;-80
2023/03/20 12:06:59;;;;;;;9.38;7.20;;;;;;;;;;4995631;28;20117;-79
2023/03/20 12:09:28;;;;;;;9.20;6.65;;;;;;;;;;5007752;28;20030;-80
2023/03/20 12:12:17;;;;;;;7.97;5.90;;;;;;;;;;5001670;28;20026;-79
2023/03/20 12:14:46;;;;;;;8.63;6.88;;;;;;;;;;4994696;28;20034;-79
2023/03/20 12:17:18;;;;;;;9.85;7.93;;;;;;;;;;4995633;28;20395;-80
2023/03/20 12:19:45;;;;;;;9.25;6.50;;;;;;;;;;4994522;28;20022;-79
2023/03/20 12:22:26;;;;;;;8.07;6.35;;;;;;;;;;5002769;28;20080;-78
2023/03/20 12:24:57;;;;;;;9.23;6.15;;;;;;;;;;4996322;28;20018;-82
2023/03/20 12:27:28;;;;;;;9.55;6.88;;;;;;;;;;4994986;28;20026;-80
2023/03/20 12:29:58;;;;;;;9.45;6.00;;;;;;;;;;4994753;28;20549;-79
2023/03/20 12:32:35;;;;;;;9.20;6.05;;;;;;;;;;4994512;28;20038;-80
2023/03/20 12:35:19;;;;;;;9.48;6.47;;;;;;;;;;4996022;28;20029;-81
2023/03/20 12:37:45;;;;;;;12.57;6.57;;;;;;;;;;4997257;28;20013;-78
2023/03/20 12:40:15;;;;;;;8.68;5.53;;;;;;;;;;5010461;28;20031;-79
2023/03/20 12:42:52;;;;;;;8.13;6.10;;;;;;;;;;5011245;28;20553;-78
2023/03/20 12:45:33;;;;;;;8.50;6.30;;;;;;;;;;5010740;28;20033;-78
2023/03/20 12:47:59;;;;;;;10.23;6.85;;;;;;;;;;5003352;28;20070;-78
2023/03/20 12:50:32;;;;;;;13.02;7.50;;;;;;;;;;4994034;28;20033;-79
2023/03/20 12:52:57;;;;;;;;;;;;;;;;;;4997603;28;20231;-77
2023/03/20 12:55:37;;;;;;;9.43;6.55;;;;;;;;;;4997666;28;20397;-79
2023/03/20 12:58:25;;;;;;;9.02;6.32;;;;;;;;;;5012151;28;20041;-79
2023/03/20 13:00:51;;;;;;;8.48;6.55;;;;;;;;;;5013497;28;20101;-79
2023/03/20 13:03:40;;;;;;;9.15;6.70;;;;;;;;;;5011316;28;20141;-79
2023/03/20 13:06:25;;;;;;;9.02;6.43;;;;;;;;;;5001642;28;20034;-79
2023/03/20 13:08:54;;;;;;;8.68;6.43;;;;;;;;;;5008407;28;20046;-79
2023/03/20 13:11:23;;;;;;;9.00;6.75;;;;;;;;;;5014454;28;20103;-80
2023/03/20 13:13:54;;;;;;;8.23;5.85;;;;;;;;;;5013489;28;20057;-78
2023/03/20 13:16:29;;;;;;;9.30;6.85;;;;;;;;;;5011407;28;20014;-79
2023/03/20 13:19:07;;;;;;;9.75;6.38;;;;;;;;;;4999197;28;20487;-81
2023/03/20 13:21:37;;;;;;;8.18;6.50;;;;;;;;;;4996082;28;20018;-79
2023/03/20 13:24:02;;;;;;;11.60;8.32;;;;;;;;;;4996403;28;20410;-79
2023/03/20 13:26:46;;;;;;;10.98;7.53;;;;;;;;;;4998519;28;20033;-81
2023/03/20 13:29:21;;;;;;;11.95;8.20;;;;;;;;;;4998614;28;20050;-81
2023/03/20 13:32:06;;;;;;;11.52;7.50;;;;;;;;;;5001323;28;20088;-83
2023/03/20 13:34:50;;;;;;;9.43;6.53;;;;;;;;;;5018512;28;20121;-81
2023/03/20 13:37:16;;;;;;;10.10;7.15;;;;;;;;;;5003282;28;20133;-81
2023/03/20 13:39:47;;;;;;;8.40;6.18;;;;;;;;;;5028163;28;20516;-81
2023/03/20 13:42:17;;;;;;;9.38;6.15;;;;;;;;;;5012999;28;20022;-81
2023/03/20 13:44:43;;;;;;;8.90;6.60;;;;;;;;;;5001436;28;20037;-81
2023/03/20 13:47:15;;;;;;;8.93;6.07;;;;;;;;;;5009861;28;20091;-81
2023/03/20 13:49:59;;;;;;;8.32;6.10;;;;;;;;;;5015969;28;20506;-80
2023/03/20 13:52:29;;;;;;;7.72;5.25;;;;;;;;;;5010371;28;20026;-80
2023/03/20 13:55:13;;;;;;;7.00;4.80;;;;;;;;;;5014529;28;20026;-80
2023/03/20 13:57:48;;;;;;;8.70;4.60;;;;;;;;;;5018192;28;20018;-80
2023/03/20 14:00:20;;;;;;;7.13;4.88;;;;;;;;;;5014104;28;20037;-80
2023/03/20 14:03:05;;;;;;;8.88;5.47;;;;;;;;;;5005328;28;20120;-80
2023/03/20 14:05:36;;;;;;;7.60;4.57;;;;;;;;;;5012294;28;20482;-80
2023/03/20 14:08:20;;;;;;;7.03;4.50;;;;;;;;;;5011575;28;20037;-80
2023/03/20 14:10:46;;;;;;;9.48;6.03;;;;;;;;;;5016974;28;20022;-80
2023/03/20 14:13:18;;;;;;;8.30;5.43;;;;;;;;;;5011642;28;20037;-80
2023/03/20 14:15:44;;;;;;;;;;;;;;;;;;5016706;28;20026;-81
2023/03/20 14:18:15;;;;;;;8.93;6.50;;;;;;;;;;5005536;28;20329;-80
2023/03/20 14:20:42;;;;;;;9.35;5.40;;;;;;;;;;5009369;28;20025;-80
2023/03/20 14:23:17;;;;;;;7.72;4.68;;;;;;;;;;4999586;28;20106;-80
2023/03/20 14:25:43;;;;;;;6.85;4.65;;;;;;;;;;4998027;28;20072;-80
2023/03/20 14:28:12;;;;;;;8.07;5.03;;;;;;;;;;5014176;28;20030;-80
2023/03/20 14:30:41;;;;;;;7.53;5.03;;;;;;;;;;5008725;28;20052;-80
2023/03/20 14:33:24;;;;;;;7.88;4.90;;;;;;;;;;5005521;28;20033;-80
2023/03/20 14:36:09;;;;;;;8.18;5.15;;;;;;;;;;4998254;28;20030;-80
2023/03/20 14:38:44;;;;;;;8.65;5.80;;;;;;;;;;4996464;28;20510;-81
2023/03/20 14:41:28;;;;;;;8.77;5.65;;;;;;;;;;5010252;28;20041;-79
2023/03/20 14:43:58;;;;;;;7.80;5.20;;;;;;;;;;5009893;28;20494;-80